sensor_id;sensor_type;location;lat;lon;timestamp;P1;durP1;ratioP1;P2;durP2;ratioP2
78893;SDS011;68282;42.698;23.350;2024-01-30T00:01:41;8.77;;;3.47;;
78893;SDS011;68282;42.698;23.350;2024-01-30T00:04:07;5.95;;;2.88;;
78893;SDS011;68282;42.698;23.350;2024-01-30T00:06:32;6.47;;;3.13;;
78893;SDS011;68282;42.698;23.350;2024-01-30T00:08:58;5.47;;;3.28;;
78893;SDS011;68282;42.698;23.350;2024-01-30T00:11:23;6.07;;;3.38;;
78893;SDS011;68282;42.698;23.350;2024-01-30T00:13:53;5.63;;;3.10;;
78893;SDS011;68282;42.698;23.350;2024-01-30T00:16:22;4.32;;;2.53;;
78893;SDS011;68282;42.698;23.350;2024-01-30T00:18:52;4.90;;;2.55;;
78893;SDS011;68282;42.698;23.350;2024-01-30T00:21:18;5.57;;;3.08;;
78893;SDS011;68282;42.698;23.350;2024-01-30T00:23:44;4.22;;;2.75;;
78893;SDS011;68282;42.698;23.350;2024-01-30T00:26:10;4.07;;;2.72;;
78893;SDS011;68282;42.698;23.350;2024-01-30T00:28:36;4.72;;;2.40;;
78893;SDS011;68282;42.698;23.350;2024-01-30T00:31:02;3.13;;;2.42;;
78893;SDS011;68282;42.698;23.350;2024-01-30T00:33:28;4.07;;;2.65;;
78893;SDS011;68282;42.698;23.350;2024-01-30T00:35:54;3.67;;;2.35;;
78893;SDS011;68282;42.698;23.350;2024-01-30T00:38:19;4.60;;;2.53;;
78893;SDS011;68282;42.698;23.350;2024-01-30T00:40:45;4.88;;;2.75;;
78893;SDS011;68282;42.698;23.350;2024-01-30T00:43:10;4.50;;;2.63;;
78893;SDS011;68282;42.698;23.350;2024-01-30T00:45:36;5.38;;;2.72;;
78893;SDS011;68282;42.698;23.350;2024-01-30T00:48:01;4.65;;;2.83;;
78893;SDS011;68282;42.698;23.350;2024-01-30T00:50:27;6.78;;;3.20;;
78893;SDS011;68282;42.698;23.350;2024-01-30T00:52:52;5.32;;;2.72;;
78893;SDS011;68282;42.698;23.350;2024-01-30T00:55:18;7.22;;;3.10;;
78893;SDS011;68282;42.698;23.350;2024-01-30T00:57:43;4.80;;;3.15;;
78893;SDS011;68282;42.698;23.350;2024-01-30T01:00:09;6.55;;;3.90;;
78893;SDS011;68282;42.698;23.350;2024-01-30T01:02:35;5.30;;;3.53;;
78893;SDS011;68282;42.698;23.350;2024-01-30T01:05:04;5.28;;;3.55;;
78893;SDS011;68282;42.698;23.350;2024-01-30T01:07:30;3.47;;;2.38;;
78893;SDS011;68282;42.698;23.350;2024-01-30T01:09:56;4.07;;;2.67;;
78893;SDS011;68282;42.698;23.350;2024-01-30T01:12:23;9.05;;;3.38;;
78893;SDS011;68282;42.698;23.350;2024-01-30T01:14:48;4.72;;;2.80;;
78893;SDS011;68282;42.698;23.350;2024-01-30T01:17:15;4.50;;;2.60;;
78893;SDS011;68282;42.698;23.350;2024-01-30T01:19:40;8.90;;;4.80;;
78893;SDS011;68282;42.698;23.350;2024-01-30T01:22:06;6.45;;;3.45;;
78893;SDS011;68282;42.698;23.350;2024-01-30T01:24:31;6.20;;;3.33;;
78893;SDS011;68282;42.698;23.350;2024-01-30T01:27:00;8.32;;;4.05;;
78893;SDS011;68282;42.698;23.350;2024-01-30T01:29:26;3.72;;;2.55;;
78893;SDS011;68282;42.698;23.350;2024-01-30T01:31:54;4.70;;;3.08;;
78893;SDS011;68282;42.698;23.350;2024-01-30T01:34:21;22.23;;;9.60;;
78893;SDS011;68282;42.698;23.350;2024-01-30T01:36:46;17.50;;;7.25;;
78893;SDS011;68282;42.698;23.350;2024-01-30T01:39:12;12.05;;;6.97;;
78893;SDS011;68282;42.698;23.350;2024-01-30T01:41:37;6.95;;;4.38;;
78893;SDS011;68282;42.698;23.350;2024-01-30T01:44:03;3.72;;;2.38;;
78893;SDS011;68282;42.698;23.350;2024-01-30T01:46:30;5.05;;;3.00;;
78893;SDS011;68282;42.698;23.350;2024-01-30T01:48:57;3.83;;;2.75;;
78893;SDS011;68282;42.698;23.350;2024-01-30T01:51:24;5.15;;;2.92;;
78893;SDS011;68282;42.698;23.350;2024-01-30T01:53:56;3.63;;;2.40;;
78893;SDS011;68282;42.698;23.350;2024-01-30T01:56:23;3.72;;;2.45;;
78893;SDS011;68282;42.698;23.350;2024-01-30T01:58:49;4.22;;;2.88;;
78893;SDS011;68282;42.698;23.350;2024-01-30T02:01:20;5.30;;;3.10;;
78893;SDS011;68282;42.698;23.350;2024-01-30T02:03:46;4.85;;;3.35;;
78893;SDS011;68282;42.698;23.350;2024-01-30T02:06:12;4.13;;;2.58;;
78893;SDS011;68282;42.698;23.350;2024-01-30T02:08:39;4.90;;;3.05;;
78893;SDS011;68282;42.698;23.350;2024-01-30T02:11:05;5.28;;;2.03;;
78893;SDS011;68282;42.698;23.350;2024-01-30T02:13:31;3.53;;;2.38;;
78893;SDS011;68282;42.698;23.350;2024-01-30T02:15:56;4.68;;;2.92;;
78893;SDS011;68282;42.698;23.350;2024-01-30T02:18:22;4.85;;;2.85;;
78893;SDS011;68282;42.698;23.350;2024-01-30T02:20:48;4.20;;;2.60;;
78893;SDS011;68282;42.698;23.350;2024-01-30T02:23:15;5.20;;;2.88;;
78893;SDS011;68282;42.698;23.350;2024-01-30T02:25:42;4.60;;;2.53;;
78893;SDS011;68282;42.698;23.350;2024-01-30T02:30:37;5.32;;;2.63;;
78893;SDS011;68282;42.698;23.350;2024-01-30T02:33:03;4.72;;;2.95;;
78893;SDS011;68282;42.698;23.350;2024-01-30T02:35:29;3.53;;;2.00;;
78893;SDS011;68282;42.698;23.350;2024-01-30T02:37:55;6.68;;;2.65;;
78893;SDS011;68282;42.698;23.350;2024-01-30T02:40:20;4.25;;;2.25;;
78893;SDS011;68282;42.698;23.350;2024-01-30T02:42:46;3.47;;;2.05;;
78893;SDS011;68282;42.698;23.350;2024-01-30T02:45:11;3.03;;;2.00;;
78893;SDS011;68282;42.698;23.350;2024-01-30T02:47:38;6.05;;;4.00;;
78893;SDS011;68282;42.698;23.350;2024-01-30T02:50:04;9.23;;;5.03;;
78893;SDS011;68282;42.698;23.350;2024-01-30T02:52:30;5.20;;;2.67;;
78893;SDS011;68282;42.698;23.350;2024-01-30T02:54:55;5.88;;;2.47;;
78893;SDS011;68282;42.698;23.350;2024-01-30T02:57:21;4.57;;;2.65;;
78893;SDS011;68282;42.698;23.350;2024-01-30T02:59:46;4.13;;;2.65;;
78893;SDS011;68282;42.698;23.350;2024-01-30T03:02:14;2.72;;;1.95;;
78893;SDS011;68282;42.698;23.350;2024-01-30T03:04:42;4.00;;;2.83;;
78893;SDS011;68282;42.698;23.350;2024-01-30T03:07:08;5.57;;;2.72;;
78893;SDS011;68282;42.698;23.350;2024-01-30T03:09:34;4.10;;;2.53;;
78893;SDS011;68282;42.698;23.350;2024-01-30T03:12:00;2.50;;;1.73;;
78893;SDS011;68282;42.698;23.350;2024-01-30T03:14:26;3.00;;;2.17;;
78893;SDS011;68282;42.698;23.350;2024-01-30T03:16:51;5.03;;;2.25;;
78893;SDS011;68282;42.698;23.350;2024-01-30T03:19:17;3.58;;;2.15;;
78893;SDS011;68282;42.698;23.350;2024-01-30T03:21:43;3.08;;;1.77;;
78893;SDS011;68282;42.698;23.350;2024-01-30T03:24:09;2.63;;;1.83;;
78893;SDS011;68282;42.698;23.350;2024-01-30T03:26:35;5.25;;;2.63;;
78893;SDS011;68282;42.698;23.350;2024-01-30T03:29:01;5.32;;;2.83;;
78893;SDS011;68282;42.698;23.350;2024-01-30T03:31:26;4.05;;;2.60;;
78893;SDS011;68282;42.698;23.350;2024-01-30T03:33:52;2.30;;;1.73;;
78893;SDS011;68282;42.698;23.350;2024-01-30T03:36:17;4.97;;;2.13;;
78893;SDS011;68282;42.698;23.350;2024-01-30T03:38:43;2.22;;;1.65;;
78893;SDS011;68282;42.698;23.350;2024-01-30T03:41:08;3.72;;;1.88;;
78893;SDS011;68282;42.698;23.350;2024-01-30T03:43:35;4.50;;;1.90;;
78893;SDS011;68282;42.698;23.350;2024-01-30T03:46:01;2.35;;;1.65;;
78893;SDS011;68282;42.698;23.350;2024-01-30T03:48:27;2.95;;;1.98;;
78893;SDS011;68282;42.698;23.350;2024-01-30T03:50:53;4.72;;;2.40;;
78893;SDS011;68282;42.698;23.350;2024-01-30T03:53:18;4.72;;;1.92;;
78893;SDS011;68282;42.698;23.350;2024-01-30T03:55:44;3.58;;;2.10;;
78893;SDS011;68282;42.698;23.350;2024-01-30T03:58:10;4.15;;;2.35;;
78893;SDS011;68282;42.698;23.350;2024-01-30T04:00:36;5.40;;;2.78;;
78893;SDS011;68282;42.698;23.350;2024-01-30T04:03:01;6.13;;;2.10;;
78893;SDS011;68282;42.698;23.350;2024-01-30T04:05:27;3.08;;;2.05;;
78893;SDS011;68282;42.698;23.350;2024-01-30T04:07:52;3.92;;;2.50;;
78893;SDS011;68282;42.698;23.350;2024-01-30T04:10:18;7.68;;;2.30;;
78893;SDS011;68282;42.698;23.350;2024-01-30T04:12:46;2.38;;;1.75;;
78893;SDS011;68282;42.698;23.350;2024-01-30T04:15:12;2.95;;;2.00;;
78893;SDS011;68282;42.698;23.350;2024-01-30T04:17:39;3.85;;;1.83;;
78893;SDS011;68282;42.698;23.350;2024-01-30T04:20:05;3.33;;;2.13;;
78893;SDS011;68282;42.698;23.350;2024-01-30T04:22:31;7.03;;;2.38;;
78893;SDS011;68282;42.698;23.350;2024-01-30T04:24:56;2.80;;;2.10;;
78893;SDS011;68282;42.698;23.350;2024-01-30T04:27:22;3.10;;;1.95;;
78893;SDS011;68282;42.698;23.350;2024-01-30T04:29:48;4.18;;;2.65;;
78893;SDS011;68282;42.698;23.350;2024-01-30T04:32:13;3.05;;;2.08;;
78893;SDS011;68282;42.698;23.350;2024-01-30T04:34:39;6.30;;;3.25;;
78893;SDS011;68282;42.698;23.350;2024-01-30T04:37:04;4.80;;;2.95;;
78893;SDS011;68282;42.698;23.350;2024-01-30T04:39:30;3.47;;;2.50;;
78893;SDS011;68282;42.698;23.350;2024-01-30T04:41:55;3.85;;;2.53;;
78893;SDS011;68282;42.698;23.350;2024-01-30T04:44:21;4.30;;;2.50;;
78893;SDS011;68282;42.698;23.350;2024-01-30T04:46:46;7.22;;;2.85;;
78893;SDS011;68282;42.698;23.350;2024-01-30T04:49:12;4.35;;;3.22;;
78893;SDS011;68282;42.698;23.350;2024-01-30T04:51:37;6.47;;;3.03;;
78893;SDS011;68282;42.698;23.350;2024-01-30T04:54:03;9.18;;;3.47;;
78893;SDS011;68282;42.698;23.350;2024-01-30T04:56:28;5.43;;;4.05;;
78893;SDS011;68282;42.698;23.350;2024-01-30T04:58:54;9.60;;;3.90;;
78893;SDS011;68282;42.698;23.350;2024-01-30T05:01:19;6.85;;;4.18;;
78893;SDS011;68282;42.698;23.350;2024-01-30T05:03:45;7.38;;;2.85;;
78893;SDS011;68282;42.698;23.350;2024-01-30T05:06:11;6.65;;;3.40;;
78893;SDS011;68282;42.698;23.350;2024-01-30T05:08:36;4.85;;;3.08;;
78893;SDS011;68282;42.698;23.350;2024-01-30T05:11:02;5.22;;;3.55;;
78893;SDS011;68282;42.698;23.350;2024-01-30T05:13:31;15.77;;;4.57;;
78893;SDS011;68282;42.698;23.350;2024-01-30T05:15:56;6.97;;;4.28;;
78893;SDS011;68282;42.698;23.350;2024-01-30T05:18:22;7.45;;;4.97;;
78893;SDS011;68282;42.698;23.350;2024-01-30T05:20:49;13.88;;;4.30;;
78893;SDS011;68282;42.698;23.350;2024-01-30T05:23:15;5.00;;;3.25;;
78893;SDS011;68282;42.698;23.350;2024-01-30T05:25:40;7.15;;;3.13;;
78893;SDS011;68282;42.698;23.350;2024-01-30T05:28:06;5.57;;;3.33;;
78893;SDS011;68282;42.698;23.350;2024-01-30T05:30:31;5.22;;;3.33;;
78893;SDS011;68282;42.698;23.350;2024-01-30T05:32:57;5.38;;;2.95;;
78893;SDS011;68282;42.698;23.350;2024-01-30T05:35:22;5.95;;;3.92;;
78893;SDS011;68282;42.698;23.350;2024-01-30T05:37:48;6.15;;;3.58;;
78893;SDS011;68282;42.698;23.350;2024-01-30T05:40:15;7.88;;;3.97;;
78893;SDS011;68282;42.698;23.350;2024-01-30T05:42:40;8.80;;;5.28;;
78893;SDS011;68282;42.698;23.350;2024-01-30T05:45:07;11.77;;;5.47;;
78893;SDS011;68282;42.698;23.350;2024-01-30T05:47:34;5.03;;;3.75;;
78893;SDS011;68282;42.698;23.350;2024-01-30T05:50:00;4.68;;;3.28;;
78893;SDS011;68282;42.698;23.350;2024-01-30T05:52:25;5.65;;;3.38;;
78893;SDS011;68282;42.698;23.350;2024-01-30T05:54:51;8.70;;;3.47;;
78893;SDS011;68282;42.698;23.350;2024-01-30T05:57:17;11.52;;;2.65;;
78893;SDS011;68282;42.698;23.350;2024-01-30T05:59:42;4.40;;;2.38;;
78893;SDS011;68282;42.698;23.350;2024-01-30T06:02:10;6.03;;;2.20;;
78893;SDS011;68282;42.698;23.350;2024-01-30T06:04:36;5.47;;;2.83;;
78893;SDS011;68282;42.698;23.350;2024-01-30T06:07:02;4.40;;;2.47;;
78893;SDS011;68282;42.698;23.350;2024-01-30T06:09:28;6.45;;;2.65;;
78893;SDS011;68282;42.698;23.350;2024-01-30T06:11:54;7.00;;;3.45;;
78893;SDS011;68282;42.698;23.350;2024-01-30T06:14:20;9.40;;;2.85;;
78893;SDS011;68282;42.698;23.350;2024-01-30T06:16:46;5.45;;;4.22;;
78893;SDS011;68282;42.698;23.350;2024-01-30T06:19:11;5.68;;;3.33;;
78893;SDS011;68282;42.698;23.350;2024-01-30T06:21:37;5.35;;;4.03;;
78893;SDS011;68282;42.698;23.350;2024-01-30T06:24:04;6.80;;;3.97;;
78893;SDS011;68282;42.698;23.350;2024-01-30T06:26:30;5.47;;;3.05;;
78893;SDS011;68282;42.698;23.350;2024-01-30T06:28:55;7.93;;;3.25;;
78893;SDS011;68282;42.698;23.350;2024-01-30T06:31:23;12.10;;;3.13;;
78893;SDS011;68282;42.698;23.350;2024-01-30T06:33:48;7.53;;;3.40;;
78893;SDS011;68282;42.698;23.350;2024-01-30T06:36:14;5.75;;;3.97;;
78893;SDS011;68282;42.698;23.350;2024-01-30T06:38:40;6.63;;;3.40;;
78893;SDS011;68282;42.698;23.350;2024-01-30T06:41:06;7.22;;;3.22;;
78893;SDS011;68282;42.698;23.350;2024-01-30T06:43:32;5.13;;;2.17;;
78893;SDS011;68282;42.698;23.350;2024-01-30T06:45:57;5.63;;;1.73;;
78893;SDS011;68282;42.698;23.350;2024-01-30T06:48:24;11.70;;;2.63;;
78893;SDS011;68282;42.698;23.350;2024-01-30T06:50:50;10.93;;;4.93;;
78893;SDS011;68282;42.698;23.350;2024-01-30T06:53:19;16.77;;;7.53;;
78893;SDS011;68282;42.698;23.350;2024-01-30T06:55:44;15.70;;;7.00;;
78893;SDS011;68282;42.698;23.350;2024-01-30T06:58:10;11.98;;;5.63;;
78893;SDS011;68282;42.698;23.350;2024-01-30T07:00:35;6.32;;;3.50;;
78893;SDS011;68282;42.698;23.350;2024-01-30T07:03:01;7.22;;;3.67;;
78893;SDS011;68282;42.698;23.350;2024-01-30T07:05:27;9.20;;;3.50;;
78893;SDS011;68282;42.698;23.350;2024-01-30T07:07:52;5.25;;;3.10;;
78893;SDS011;68282;42.698;23.350;2024-01-30T07:10:17;4.60;;;2.60;;
78893;SDS011;68282;42.698;23.350;2024-01-30T07:12:43;6.82;;;3.83;;
78893;SDS011;68282;42.698;23.350;2024-01-30T07:15:09;4.70;;;3.28;;
78893;SDS011;68282;42.698;23.350;2024-01-30T07:17:35;5.15;;;2.88;;
78893;SDS011;68282;42.698;23.350;2024-01-30T07:20:01;6.53;;;3.50;;
78893;SDS011;68282;42.698;23.350;2024-01-30T07:22:28;3.97;;;2.58;;
78893;SDS011;68282;42.698;23.350;2024-01-30T07:24:55;4.20;;;2.35;;
78893;SDS011;68282;42.698;23.350;2024-01-30T07:27:21;3.55;;;2.40;;
78893;SDS011;68282;42.698;23.350;2024-01-30T07:29:46;3.88;;;2.55;;
78893;SDS011;68282;42.698;23.350;2024-01-30T07:32:12;3.50;;;2.42;;
78893;SDS011;68282;42.698;23.350;2024-01-30T07:34:39;8.23;;;2.40;;
78893;SDS011;68282;42.698;23.350;2024-01-30T07:37:04;10.82;;;2.90;;
78893;SDS011;68282;42.698;23.350;2024-01-30T07:39:30;4.70;;;2.17;;
78893;SDS011;68282;42.698;23.350;2024-01-30T07:41:55;3.28;;;2.22;;
78893;SDS011;68282;42.698;23.350;2024-01-30T07:44:21;4.90;;;3.17;;
78893;SDS011;68282;42.698;23.350;2024-01-30T07:46:47;5.60;;;2.70;;
78893;SDS011;68282;42.698;23.350;2024-01-30T07:49:12;2.60;;;1.55;;
78893;SDS011;68282;42.698;23.350;2024-01-30T07:51:39;4.65;;;3.00;;
78893;SDS011;68282;42.698;23.350;2024-01-30T07:54:05;3.15;;;2.05;;
78893;SDS011;68282;42.698;23.350;2024-01-30T07:56:30;4.20;;;2.30;;
78893;SDS011;68282;42.698;23.350;2024-01-30T07:58:56;3.40;;;2.17;;
78893;SDS011;68282;42.698;23.350;2024-01-30T08:01:21;3.45;;;2.13;;
78893;SDS011;68282;42.698;23.350;2024-01-30T08:03:47;4.00;;;2.55;;
78893;SDS011;68282;42.698;23.350;2024-01-30T08:06:12;4.30;;;2.55;;
78893;SDS011;68282;42.698;23.350;2024-01-30T08:08:38;4.45;;;2.17;;
78893;SDS011;68282;42.698;23.350;2024-01-30T08:11:03;5.78;;;2.85;;
78893;SDS011;68282;42.698;23.350;2024-01-30T08:13:29;4.40;;;2.72;;
78893;SDS011;68282;42.698;23.350;2024-01-30T08:15:54;3.72;;;2.33;;
78893;SDS011;68282;42.698;23.350;2024-01-30T08:18:20;4.07;;;2.17;;
78893;SDS011;68282;42.698;23.350;2024-01-30T08:20:45;4.88;;;3.25;;
78893;SDS011;68282;42.698;23.350;2024-01-30T08:23:11;3.30;;;2.55;;
78893;SDS011;68282;42.698;23.350;2024-01-30T08:25:36;3.97;;;2.05;;
78893;SDS011;68282;42.698;23.350;2024-01-30T08:28:02;6.00;;;3.03;;
78893;SDS011;68282;42.698;23.350;2024-01-30T08:30:29;3.20;;;2.28;;
78893;SDS011;68282;42.698;23.350;2024-01-30T08:32:54;3.92;;;2.63;;
78893;SDS011;68282;42.698;23.350;2024-01-30T08:35:20;5.00;;;2.20;;
78893;SDS011;68282;42.698;23.350;2024-01-30T08:37:45;4.15;;;2.45;;
78893;SDS011;68282;42.698;23.350;2024-01-30T08:40:11;3.63;;;2.05;;
78893;SDS011;68282;42.698;23.350;2024-01-30T08:42:36;4.18;;;3.00;;
78893;SDS011;68282;42.698;23.350;2024-01-30T08:45:02;4.32;;;2.72;;
78893;SDS011;68282;42.698;23.350;2024-01-30T08:47:29;5.20;;;2.70;;
78893;SDS011;68282;42.698;23.350;2024-01-30T08:49:56;5.68;;;3.10;;
78893;SDS011;68282;42.698;23.350;2024-01-30T08:52:21;5.90;;;3.30;;
78893;SDS011;68282;42.698;23.350;2024-01-30T08:54:47;8.73;;;4.53;;
78893;SDS011;68282;42.698;23.350;2024-01-30T08:57:12;5.20;;;2.53;;
78893;SDS011;68282;42.698;23.350;2024-01-30T08:59:38;5.72;;;3.08;;
78893;SDS011;68282;42.698;23.350;2024-01-30T09:02:04;5.05;;;2.90;;
78893;SDS011;68282;42.698;23.350;2024-01-30T09:04:30;7.85;;;2.95;;
78893;SDS011;68282;42.698;23.350;2024-01-30T09:06:55;4.93;;;2.70;;
78893;SDS011;68282;42.698;23.350;2024-01-30T09:09:21;5.45;;;3.10;;
78893;SDS011;68282;42.698;23.350;2024-01-30T09:11:46;5.15;;;2.70;;
78893;SDS011;68282;42.698;23.350;2024-01-30T09:14:12;7.90;;;4.20;;
78893;SDS011;68282;42.698;23.350;2024-01-30T09:16:37;4.13;;;2.75;;
78893;SDS011;68282;42.698;23.350;2024-01-30T09:19:03;4.82;;;2.38;;
78893;SDS011;68282;42.698;23.350;2024-01-30T09:21:29;1.90;;;1.63;;
78893;SDS011;68282;42.698;23.350;2024-01-30T09:24:00;6.50;;;2.78;;
78893;SDS011;68282;42.698;23.350;2024-01-30T09:26:28;3.38;;;2.05;;
78893;SDS011;68282;42.698;23.350;2024-01-30T09:28:53;4.40;;;2.92;;
78893;SDS011;68282;42.698;23.350;2024-01-30T09:31:19;4.18;;;2.40;;
78893;SDS011;68282;42.698;23.350;2024-01-30T09:33:44;4.18;;;2.53;;
78893;SDS011;68282;42.698;23.350;2024-01-30T09:36:12;3.10;;;2.22;;
78893;SDS011;68282;42.698;23.350;2024-01-30T09:38:40;4.35;;;2.35;;
78893;SDS011;68282;42.698;23.350;2024-01-30T09:41:06;4.28;;;2.15;;
78893;SDS011;68282;42.698;23.350;2024-01-30T09:43:34;3.72;;;2.03;;
78893;SDS011;68282;42.698;23.350;2024-01-30T09:46:01;3.33;;;2.22;;
78893;SDS011;68282;42.698;23.350;2024-01-30T09:48:29;9.65;;;2.63;;
78893;SDS011;68282;42.698;23.350;2024-01-30T09:50:56;4.57;;;2.47;;
78893;SDS011;68282;42.698;23.350;2024-01-30T09:53:23;4.28;;;2.20;;
78893;SDS011;68282;42.698;23.350;2024-01-30T09:55:50;3.15;;;1.77;;
78893;SDS011;68282;42.698;23.350;2024-01-30T09:58:16;3.47;;;2.33;;
78893;SDS011;68282;42.698;23.350;2024-01-30T10:00:42;6.72;;;2.47;;
78893;SDS011;68282;42.698;23.350;2024-01-30T10:03:08;4.68;;;2.67;;
78893;SDS011;68282;42.698;23.350;2024-01-30T10:05:35;4.68;;;2.20;;
78893;SDS011;68282;42.698;23.350;2024-01-30T10:08:05;4.15;;;2.55;;
78893;SDS011;68282;42.698;23.350;2024-01-30T10:10:33;3.25;;;2.22;;
78893;SDS011;68282;42.698;23.350;2024-01-30T10:12:59;3.72;;;2.20;;
78893;SDS011;68282;42.698;23.350;2024-01-30T10:15:25;3.35;;;1.90;;
78893;SDS011;68282;42.698;23.350;2024-01-30T10:17:52;4.68;;;2.00;;
78893;SDS011;68282;42.698;23.350;2024-01-30T10:20:17;3.80;;;2.55;;
78893;SDS011;68282;42.698;23.350;2024-01-30T10:22:44;5.97;;;3.25;;
78893;SDS011;68282;42.698;23.350;2024-01-30T10:25:10;3.45;;;1.92;;
78893;SDS011;68282;42.698;23.350;2024-01-30T10:27:39;3.72;;;1.75;;
78893;SDS011;68282;42.698;23.350;2024-01-30T10:30:05;5.43;;;2.65;;
78893;SDS011;68282;42.698;23.350;2024-01-30T10:32:31;2.83;;;1.88;;
78893;SDS011;68282;42.698;23.350;2024-01-30T10:34:56;3.20;;;1.98;;
78893;SDS011;68282;42.698;23.350;2024-01-30T10:37:22;3.50;;;2.10;;
78893;SDS011;68282;42.698;23.350;2024-01-30T10:39:50;2.83;;;1.80;;
78893;SDS011;68282;42.698;23.350;2024-01-30T10:47:34;2.92;;;1.70;;
78893;SDS011;68282;42.698;23.350;2024-01-30T10:50:04;1.73;;;1.58;;
78893;SDS011;68282;42.698;23.350;2024-01-30T10:52:30;2.45;;;1.77;;
78893;SDS011;68282;42.698;23.350;2024-01-30T10:54:57;4.22;;;2.20;;
78893;SDS011;68282;42.698;23.350;2024-01-30T10:57:23;3.35;;;1.95;;
78893;SDS011;68282;42.698;23.350;2024-01-30T10:59:51;3.75;;;2.05;;
78893;SDS011;68282;42.698;23.350;2024-01-30T11:02:19;3.45;;;1.63;;
78893;SDS011;68282;42.698;23.350;2024-01-30T11:04:45;3.75;;;2.15;;
78893;SDS011;68282;42.698;23.350;2024-01-30T11:07:17;3.63;;;2.28;;
78893;SDS011;68282;42.698;23.350;2024-01-30T11:09:52;4.07;;;2.00;;
78893;SDS011;68282;42.698;23.350;2024-01-30T11:12:29;2.70;;;1.90;;
78893;SDS011;68282;42.698;23.350;2024-01-30T11:15:01;4.55;;;1.95;;
78893;SDS011;68282;42.698;23.350;2024-01-30T11:20:15;3.58;;;1.75;;
78893;SDS011;68282;42.698;23.350;2024-01-30T11:22:46;3.72;;;1.95;;
78893;SDS011;68282;42.698;23.350;2024-01-30T11:25:13;3.17;;;2.20;;
78893;SDS011;68282;42.698;23.350;2024-01-30T11:27:39;3.88;;;2.33;;
78893;SDS011;68282;42.698;23.350;2024-01-30T11:30:06;3.30;;;2.03;;
78893;SDS011;68282;42.698;23.350;2024-01-30T11:32:33;4.43;;;2.15;;
78893;SDS011;68282;42.698;23.350;2024-01-30T11:34:58;3.85;;;1.80;;
78893;SDS011;68282;42.698;23.350;2024-01-30T11:37:25;3.13;;;2.05;;
78893;SDS011;68282;42.698;23.350;2024-01-30T11:39:54;6.63;;;2.50;;
78893;SDS011;68282;42.698;23.350;2024-01-30T11:42:23;3.38;;;2.20;;
78893;SDS011;68282;42.698;23.350;2024-01-30T11:44:53;3.03;;;2.30;;
78893;SDS011;68282;42.698;23.350;2024-01-30T11:47:19;4.97;;;3.05;;
78893;SDS011;68282;42.698;23.350;2024-01-30T11:49:44;4.38;;;2.90;;
78893;SDS011;68282;42.698;23.350;2024-01-30T11:52:10;4.05;;;2.47;;
78893;SDS011;68282;42.698;23.350;2024-01-30T11:54:38;4.05;;;2.35;;
78893;SDS011;68282;42.698;23.350;2024-01-30T11:57:05;4.13;;;2.00;;
78893;SDS011;68282;42.698;23.350;2024-01-30T11:59:30;3.58;;;2.30;;
78893;SDS011;68282;42.698;23.350;2024-01-30T12:01:56;4.13;;;2.63;;
78893;SDS011;68282;42.698;23.350;2024-01-30T12:04:21;4.38;;;2.83;;
78893;SDS011;68282;42.698;23.350;2024-01-30T12:06:50;5.22;;;2.75;;
78893;SDS011;68282;42.698;23.350;2024-01-30T12:09:16;4.32;;;2.72;;
78893;SDS011;68282;42.698;23.350;2024-01-30T12:11:49;4.38;;;2.40;;
78893;SDS011;68282;42.698;23.350;2024-01-30T12:14:17;9.27;;;3.50;;
78893;SDS011;68282;42.698;23.350;2024-01-30T12:16:47;3.50;;;2.33;;
78893;SDS011;68282;42.698;23.350;2024-01-30T12:21:46;6.32;;;2.50;;
78893;SDS011;68282;42.698;23.350;2024-01-30T12:24:11;5.40;;;2.72;;
78893;SDS011;68282;42.698;23.350;2024-01-30T12:26:37;4.35;;;2.45;;
78893;SDS011;68282;42.698;23.350;2024-01-30T12:29:03;4.93;;;2.63;;
78893;SDS011;68282;42.698;23.350;2024-01-30T12:31:31;3.45;;;2.17;;
78893;SDS011;68282;42.698;23.350;2024-01-30T12:33:59;4.93;;;3.10;;
78893;SDS011;68282;42.698;23.350;2024-01-30T12:36:25;2.90;;;1.80;;
78893;SDS011;68282;42.698;23.350;2024-01-30T12:38:51;4.60;;;2.25;;
78893;SDS011;68282;42.698;23.350;2024-01-30T12:41:17;3.20;;;2.20;;
78893;SDS011;68282;42.698;23.350;2024-01-30T12:43:43;3.80;;;2.50;;
78893;SDS011;68282;42.698;23.350;2024-01-30T12:46:09;4.30;;;1.80;;
78893;SDS011;68282;42.698;23.350;2024-01-30T12:48:34;4.88;;;2.63;;
78893;SDS011;68282;42.698;23.350;2024-01-30T12:51:00;4.35;;;2.60;;
78893;SDS011;68282;42.698;23.350;2024-01-30T12:53:25;4.22;;;2.50;;
78893;SDS011;68282;42.698;23.350;2024-01-30T12:55:51;3.88;;;2.40;;
78893;SDS011;68282;42.698;23.350;2024-01-30T12:58:18;5.03;;;2.35;;
78893;SDS011;68282;42.698;23.350;2024-01-30T13:00:43;3.20;;;2.35;;
78893;SDS011;68282;42.698;23.350;2024-01-30T13:03:10;3.65;;;2.35;;
78893;SDS011;68282;42.698;23.350;2024-01-30T13:05:35;3.72;;;2.42;;
78893;SDS011;68282;42.698;23.350;2024-01-30T13:08:01;7.57;;;2.83;;
78893;SDS011;68282;42.698;23.350;2024-01-30T13:10:27;2.97;;;2.28;;
78893;SDS011;68282;42.698;23.350;2024-01-30T13:12:52;3.10;;;2.25;;
78893;SDS011;68282;42.698;23.350;2024-01-30T13:15:18;3.30;;;2.17;;
78893;SDS011;68282;42.698;23.350;2024-01-30T13:17:44;4.45;;;2.30;;
78893;SDS011;68282;42.698;23.350;2024-01-30T13:20:12;4.38;;;2.38;;
78893;SDS011;68282;42.698;23.350;2024-01-30T13:22:41;2.78;;;1.80;;
78893;SDS011;68282;42.698;23.350;2024-01-30T13:25:08;7.57;;;2.90;;
78893;SDS011;68282;42.698;23.350;2024-01-30T13:27:35;5.03;;;2.38;;
78893;SDS011;68282;42.698;23.350;2024-01-30T13:30:02;5.40;;;3.17;;
78893;SDS011;68282;42.698;23.350;2024-01-30T13:32:28;4.90;;;2.95;;
78893;SDS011;68282;42.698;23.350;2024-01-30T13:34:54;6.18;;;2.80;;
78893;SDS011;68282;42.698;23.350;2024-01-30T13:37:19;5.20;;;2.90;;
78893;SDS011;68282;42.698;23.350;2024-01-30T13:39:45;3.35;;;2.25;;
78893;SDS011;68282;42.698;23.350;2024-01-30T13:42:10;4.38;;;2.25;;
78893;SDS011;68282;42.698;23.350;2024-01-30T13:44:36;4.80;;;2.55;;
78893;SDS011;68282;42.698;23.350;2024-01-30T13:47:02;5.20;;;3.05;;
78893;SDS011;68282;42.698;23.350;2024-01-30T13:49:27;5.47;;;3.60;;
78893;SDS011;68282;42.698;23.350;2024-01-30T13:51:53;6.18;;;2.65;;
78893;SDS011;68282;42.698;23.350;2024-01-30T13:54:18;5.13;;;3.25;;
78893;SDS011;68282;42.698;23.350;2024-01-30T13:56:44;5.07;;;3.22;;
78893;SDS011;68282;42.698;23.350;2024-01-30T13:59:10;4.78;;;2.72;;
78893;SDS011;68282;42.698;23.350;2024-01-30T14:01:35;4.03;;;2.30;;
78893;SDS011;68282;42.698;23.350;2024-01-30T14:04:01;4.35;;;2.30;;
78893;SDS011;68282;42.698;23.350;2024-01-30T14:06:26;4.35;;;2.85;;
78893;SDS011;68282;42.698;23.350;2024-01-30T14:08:52;3.53;;;2.50;;
78893;SDS011;68282;42.698;23.350;2024-01-30T14:11:18;3.97;;;2.70;;
78893;SDS011;68282;42.698;23.350;2024-01-30T14:13:43;15.15;;;3.70;;
78893;SDS011;68282;42.698;23.350;2024-01-30T14:16:09;5.20;;;2.72;;
78893;SDS011;68282;42.698;23.350;2024-01-30T14:18:34;4.05;;;2.58;;
78893;SDS011;68282;42.698;23.350;2024-01-30T14:21:00;6.53;;;2.60;;
78893;SDS011;68282;42.698;23.350;2024-01-30T14:23:25;3.78;;;2.60;;
78893;SDS011;68282;42.698;23.350;2024-01-30T14:25:51;4.45;;;2.63;;
78893;SDS011;68282;42.698;23.350;2024-01-30T14:28:16;4.10;;;2.60;;
78893;SDS011;68282;42.698;23.350;2024-01-30T14:30:42;3.75;;;2.25;;
78893;SDS011;68282;42.698;23.350;2024-01-30T14:33:08;6.18;;;2.53;;
78893;SDS011;68282;42.698;23.350;2024-01-30T14:35:33;5.00;;;3.00;;
78893;SDS011;68282;42.698;23.350;2024-01-30T14:37:59;4.32;;;2.30;;
78893;SDS011;68282;42.698;23.350;2024-01-30T14:40:24;4.47;;;2.45;;